sensor_id;sensor_type;location;lat;lon;timestamp;pressure;altitude;pressure_sealevel;temperature;humidity
69318;BME280;56457;52.190;4.440;2023-05-25T00:00:41;102772.81;;;12.04;100.00
69318;BME280;56457;52.190;4.440;2023-05-25T00:01:41;102767.56;;;12.04;100.00
69318;BME280;56457;52.190;4.440;2023-05-25T00:02:43;102768.41;;;12.00;100.00
69318;BME280;56457;52.190;4.440;2023-05-25T00:03:45;102777.19;;;12.02;100.00
69318;BME280;56457;52.190;4.440;2023-05-25T00:04:45;102771.03;;;12.01;100.00
69318;BME280;56457;52.190;4.440;2023-05-25T00:05:47;102769.38;;;12.05;100.00
69318;BME280;56457;52.190;4.440;2023-05-25T00:06:49;102778.09;;;12.04;100.00
69318;BME280;56457;52.190;4.440;2023-05-25T00:07:49;102776.31;;;12.01;100.00
69318;BME280;56457;52.190;4.440;2023-05-25T00:08:50;102782.44;;;12.00;100.00
69318;BME280;56457;52.190;4.440;2023-05-25T00:09:53;102777.16;;;11.99;100.00
69318;BME280;56457;52.190;4.440;2023-05-25T00:10:54;102782.44;;;12.02;100.00
69318;BME280;56457;52.190;4.440;2023-05-25T00:11:54;102784.22;;;12.04;100.00
69318;BME280;56457;52.190;4.440;2023-05-25T00:12:54;102780.69;;;12.01;100.00
69318;BME280;56457;52.190;4.440;2023-05-25T00:13:56;102776.28;;;12.00;100.00
69318;BME280;56457;52.190;4.440;2023-05-25T00:14:56;102780.56;;;11.95;100.00
69318;BME280;56457;52.190;4.440;2023-05-25T00:15:56;102777.09;;;11.97;100.00
69318;BME280;56457;52.190;4.440;2023-05-25T00:16:57;102777.94;;;11.95;100.00
69318;BME280;56457;52.190;4.440;2023-05-25T00:17:57;102777.00;;;11.91;100.00
69318;BME280;56457;52.190;4.440;2023-05-25T00:18:57;102780.47;;;11.89;100.00
69318;BME280;56457;52.190;4.440;2023-05-25T00:19:58;102771.69;;;11.87;100.00
69318;BME280;56457;52.190;4.440;2023-05-25T00:21:06;102779.50;;;11.83;100.00
69318;BME280;56457;52.190;4.440;2023-05-25T00:22:07;102775.84;;;11.78;100.00
69318;BME280;56457;52.190;4.440;2023-05-25T00:23:07;102774.97;;;11.78;100.00
69318;BME280;56457;52.190;4.440;2023-05-25T00:24:08;102776.72;;;11.76;100.00
69318;BME280;56457;52.190;4.440;2023-05-25T00:25:08;102781.06;;;11.74;100.00
69318;BME280;56457;52.190;4.440;2023-05-25T00:26:08;102781.94;;;11.74;100.00
69318;BME280;56457;52.190;4.440;2023-05-25T00:27:09;102789.00;;;11.77;100.00
69318;BME280;56457;52.190;4.440;2023-05-25T00:28:10;102786.28;;;11.72;100.00
69318;BME280;56457;52.190;4.440;2023-05-25T00:29:10;102784.50;;;11.71;100.00
69318;BME280;56457;52.190;4.440;2023-05-25T00:30:11;102784.53;;;11.73;100.00
69318;BME280;56457;52.190;4.440;2023-05-25T00:31:12;102790.59;;;11.69;100.00
69318;BME280;56457;52.190;4.440;2023-05-25T00:32:12;102780.97;;;11.69;100.00
69318;BME280;56457;52.190;4.440;2023-05-25T00:33:12;102781.84;;;11.68;100.00
69318;BME280;56457;52.190;4.440;2023-05-25T00:34:13;102790.66;;;11.73;100.00
69318;BME280;56457;52.190;4.440;2023-05-25T00:35:13;102787.09;;;11.70;100.00
69318;BME280;56457;52.190;4.440;2023-05-25T00:36:13;102786.22;;;11.68;100.00
69318;BME280;56457;52.190;4.440;2023-05-25T00:37:14;102787.09;;;11.68;100.00
69318;BME280;56457;52.190;4.440;2023-05-25T00:38:15;102782.72;;;11.69;100.00
69318;BME280;56457;52.190;4.440;2023-05-25T00:39:19;102792.38;;;11.70;100.00
69318;BME280;56457;52.190;4.440;2023-05-25T00:40:19;102790.56;;;11.67;100.00
69318;BME280;56457;52.190;4.440;2023-05-25T00:41:20;102790.53;;;11.66;100.00
69318;BME280;56457;52.190;4.440;2023-05-25T00:42:21;102782.66;;;11.67;100.00
69318;BME280;56457;52.190;4.440;2023-05-25T00:43:22;102789.66;;;11.67;100.00
69318;BME280;56457;52.190;4.440;2023-05-25T00:44:22;102787.88;;;11.64;100.00
69318;BME280;56457;52.190;4.440;2023-05-25T00:45:23;102793.13;;;11.64;100.00
69318;BME280;56457;52.190;4.440;2023-05-25T00:46:23;102788.75;;;11.63;100.00
69318;BME280;56457;52.190;4.440;2023-05-25T00:47:24;102792.25;;;11.64;100.00
69318;BME280;56457;52.190;4.440;2023-05-25T00:48:25;102796.63;;;11.63;100.00
69318;BME280;56457;52.190;4.440;2023-05-25T00:49:32;102794.88;;;11.62;100.00
69318;BME280;56457;52.190;4.440;2023-05-25T00:51:36;102794.03;;;11.66;100.00
69318;BME280;56457;52.190;4.440;2023-05-25T00:52:36;102802.75;;;11.62;100.00
69318;BME280;56457;52.190;4.440;2023-05-25T00:53:36;102800.03;;;11.59;100.00
69318;BME280;56457;52.190;4.440;2023-05-25T00:57:00;102805.19;;;11.54;100.00
69318;BME280;56457;52.190;4.440;2023-05-25T00:58:03;102799.13;;;11.55;100.00
69318;BME280;56457;52.190;4.440;2023-05-25T00:59:07;102799.94;;;11.53;100.00
69318;BME280;56457;52.190;4.440;2023-05-25T01:00:09;102807.94;;;11.59;100.00
69318;BME280;56457;52.190;4.440;2023-05-25T01:01:12;102802.63;;;11.56;100.00
69318;BME280;56457;52.190;4.440;2023-05-25T01:02:14;102806.94;;;11.54;100.00
69318;BME280;56457;52.190;4.440;2023-05-25T01:03:18;102796.44;;;11.54;100.00
69318;BME280;56457;52.190;4.440;2023-05-25T01:04:20;102803.44;;;11.53;100.00
69318;BME280;56457;52.190;4.440;2023-05-25T01:05:23;102802.56;;;11.53;100.00
69318;BME280;56457;52.190;4.440;2023-05-25T01:06:29;102802.53;;;11.51;100.00
69318;BME280;56457;52.190;4.440;2023-05-25T01:07:31;102801.56;;;11.46;100.00
69318;BME280;56457;52.190;4.440;2023-05-25T01:08:32;102801.56;;;11.46;100.00
69318;BME280;56457;52.190;4.440;2023-05-25T01:09:33;102809.44;;;11.46;100.00
69318;BME280;56457;52.190;4.440;2023-05-25T01:10:34;102807.66;;;11.44;100.00
69318;BME280;56457;52.190;4.440;2023-05-25T01:11:36;102810.19;;;11.41;100.00
69318;BME280;56457;52.190;4.440;2023-05-25T01:12:38;102814.59;;;11.42;100.00
69318;BME280;56457;52.190;4.440;2023-05-25T01:13:39;102808.44;;;11.41;100.00
69318;BME280;56457;52.190;4.440;2023-05-25T01:14:41;102812.81;;;11.41;100.00
69318;BME280;56457;52.190;4.440;2023-05-25T01:15:42;102811.03;;;11.38;100.00
69318;BME280;56457;52.190;4.440;2023-05-25T01:16:43;102815.34;;;11.36;100.00
69318;BME280;56457;52.190;4.440;2023-05-25T01:17:44;102816.28;;;11.37;100.00
69318;BME280;56457;52.190;4.440;2023-05-25T01:18:44;102818.06;;;11.39;100.00
69318;BME280;56457;52.190;4.440;2023-05-25T01:19:47;102811.91;;;11.39;100.00
69318;BME280;56457;52.190;4.440;2023-05-25T01:21:03;102810.19;;;11.41;100.00
69318;BME280;56457;52.190;4.440;2023-05-25T01:22:14;102812.81;;;11.39;100.00
69318;BME280;56457;52.190;4.440;2023-05-25T01:23:19;102813.56;;;11.33;100.00
69318;BME280;56457;52.190;4.440;2023-05-25T01:24:43;102812.66;;;11.31;100.00
69318;BME280;56457;52.190;4.440;2023-05-25T01:25:47;102821.41;;;11.32;100.00
69318;BME280;56457;52.190;4.440;2023-05-25T01:28:10;102806.47;;;11.29;100.00
69318;BME280;56457;52.190;4.440;2023-05-25T01:29:10;102814.41;;;11.31;100.00
69318;BME280;56457;52.190;4.440;2023-05-25T01:30:12;102808.25;;;11.30;100.00
69318;BME280;56457;52.190;4.440;2023-05-25T01:31:13;102822.22;;;11.29;100.00
69318;BME280;56457;52.190;4.440;2023-05-25T01:32:15;102812.53;;;11.25;100.00
69318;BME280;56457;52.190;4.440;2023-05-25T01:33:17;102815.09;;;11.24;100.00
69318;BME280;56457;52.190;4.440;2023-05-25T01:34:17;102816.91;;;11.25;100.00
69318;BME280;56457;52.190;4.440;2023-05-25T01:35:18;102815.19;;;11.27;100.00
69318;BME280;56457;52.190;4.440;2023-05-25T01:36:19;102822.19;;;11.26;100.00
69318;BME280;56457;52.190;4.440;2023-05-25T01:37:20;102820.41;;;11.25;100.00
69318;BME280;56457;52.190;4.440;2023-05-25T01:38:22;102818.72;;;11.29;100.00
69318;BME280;56457;52.190;4.440;2023-05-25T01:39:22;102815.19;;;11.27;100.00
69318;BME280;56457;52.190;4.440;2023-05-25T01:40:23;102819.56;;;11.26;100.00
69318;BME280;56457;52.190;4.440;2023-05-25T01:41:23;102813.38;;;11.24;100.00
69318;BME280;56457;52.190;4.440;2023-05-25T01:42:23;102823.03;;;11.25;100.00
69318;BME280;56457;52.190;4.440;2023-05-25T01:43:24;102823.81;;;11.21;100.00
69318;BME280;56457;52.190;4.440;2023-05-25T01:44:24;102824.72;;;11.23;100.00
69318;BME280;56457;52.190;4.440;2023-05-25T01:45:25;102820.31;;;11.21;100.00
69318;BME280;56457;52.190;4.440;2023-05-25T01:48:29;102821.03;;;11.14;100.00
69318;BME280;56457;52.190;4.440;2023-05-25T01:49:37;102828.03;;;11.13;100.00
69318;BME280;56457;52.190;4.440;2023-05-25T01:51:16;102821.03;;;11.14;100.00
69318;BME280;56457;52.190;4.440;2023-05-25T01:52:16;102826.41;;;11.18;100.00
69318;BME280;56457;52.190;4.440;2023-05-25T01:53:40;102831.59;;;11.17;100.00
69318;BME280;56457;52.190;4.440;2023-05-25T01:54:39;102834.16;;;11.14;100.00
69318;BME280;56457;52.190;4.440;2023-05-25T01:55:52;102831.50;;;11.12;100.00
69318;BME280;56457;52.190;4.440;2023-05-25T01:56:53;102837.56;;;11.10;100.00
69318;BME280;56457;52.190;4.440;2023-05-25T01:57:58;102834.91;;;11.08;100.00
69318;BME280;56457;52.190;4.440;2023-05-25T01:58:59;102825.28;;;11.07;100.00
69318;BME280;56457;52.190;4.440;2023-05-25T02:00:00;102827.88;;;11.05;100.00
69318;BME280;56457;52.190;4.440;2023-05-25T02:01:02;102826.06;;;11.04;100.00
69318;BME280;56457;52.190;4.440;2023-05-25T02:02:02;102831.31;;;11.03;100.00
69318;BME280;56457;52.190;4.440;2023-05-25T02:03:04;102826.88;;;11.00;100.00
69318;BME280;56457;52.190;4.440;2023-05-25T02:04:04;102833.13;;;11.05;100.00
69318;BME280;56457;52.190;4.440;2023-05-25T02:05:05;102834.81;;;11.03;100.00
69318;BME280;56457;52.190;4.440;2023-05-25T02:06:06;102827.88;;;11.05;100.00
69318;BME280;56457;52.190;4.440;2023-05-25T02:07:07;102828.78;;;11.08;100.00
69318;BME280;56457;52.190;4.440;2023-05-25T02:08:07;102833.19;;;11.09;100.00
69318;BME280;56457;52.190;4.440;2023-05-25T02:09:07;102828.81;;;11.09;100.00
69318;BME280;56457;52.190;4.440;2023-05-25T02:10:08;102834.00;;;11.06;100.00
69318;BME280;56457;52.190;4.440;2023-05-25T02:11:08;102829.56;;;11.03;100.00
69318;BME280;56457;52.190;4.440;2023-05-25T02:12:09;102828.66;;;11.01;100.00
69318;BME280;56457;52.190;4.440;2023-05-25T02:13:10;102832.16;;;11.02;100.00
69318;BME280;56457;52.190;4.440;2023-05-25T02:14:10;102833.00;;;11.01;100.00
69318;BME280;56457;52.190;4.440;2023-05-25T02:15:10;102838.13;;;10.95;100.00
69318;BME280;56457;52.190;4.440;2023-05-25T02:16:11;102834.66;;;10.96;100.00
69318;BME280;56457;52.190;4.440;2023-05-25T02:17:11;102841.66;;;10.95;100.00
69318;BME280;56457;52.190;4.440;2023-05-25T02:18:11;102831.94;;;10.93;100.00
69318;BME280;56457;52.190;4.440;2023-05-25T02:19:12;102839.81;;;10.93;100.00
69318;BME280;56457;52.190;4.440;2023-05-25T02:20:14;102838.09;;;10.93;100.00
69318;BME280;56457;52.190;4.440;2023-05-25T02:21:14;102849.53;;;10.95;100.00
69318;BME280;56457;52.190;4.440;2023-05-25T02:22:15;102848.69;;;10.98;100.00
69318;BME280;56457;52.190;4.440;2023-05-25T02:23:15;102851.31;;;10.98;100.00
69318;BME280;56457;52.190;4.440;2023-05-25T02:24:17;102837.28;;;10.96;100.00
69318;BME280;56457;52.190;4.440;2023-05-25T02:25:18;102842.53;;;10.96;100.00
69318;BME280;56457;52.190;4.440;2023-05-25T02:26:18;102841.66;;;10.97;100.00
69318;BME280;56457;52.190;4.440;2023-05-25T02:27:19;102843.38;;;10.95;100.00
69318;BME280;56457;52.190;4.440;2023-05-25T02:28:20;102851.25;;;10.95;100.00
69318;BME280;56457;52.190;4.440;2023-05-25T02:29:20;102854.75;;;10.94;100.00
69318;BME280;56457;52.190;4.440;2023-05-25T02:30:20;102853.88;;;10.95;100.00
69318;BME280;56457;52.190;4.440;2023-05-25T02:31:21;102852.88;;;10.90;100.00
69318;BME280;56457;52.190;4.440;2023-05-25T02:32:21;102852.94;;;10.93;100.00
69318;BME280;56457;52.190;4.440;2023-05-25T02:33:21;102848.59;;;10.93;100.00
69318;BME280;56457;52.190;4.440;2023-05-25T02:34:22;102853.81;;;10.92;100.00
69318;BME280;56457;52.190;4.440;2023-05-25T02:35:23;102851.13;;;10.89;100.00
69318;BME280;56457;52.190;4.440;2023-05-25T02:36:23;102846.75;;;10.89;100.00
69318;BME280;56457;52.190;4.440;2023-05-25T02:37:24;102851.91;;;10.86;100.00
69318;BME280;56457;52.190;4.440;2023-05-25T02:38:24;102853.66;;;10.86;100.00
69318;BME280;56457;52.190;4.440;2023-05-25T02:39:25;102851.97;;;10.88;100.00
69318;BME280;56457;52.190;4.440;2023-05-25T02:40:26;102852.91;;;10.91;100.00
69318;BME280;56457;52.190;4.440;2023-05-25T02:41:27;102852.91;;;10.91;100.00
69318;BME280;56457;52.190;4.440;2023-05-25T02:42:27;102854.53;;;10.86;100.00
69318;BME280;56457;52.190;4.440;2023-05-25T02:43:27;102853.75;;;10.89;100.00
69318;BME280;56457;52.190;4.440;2023-05-25T02:44:28;102849.41;;;10.91;100.00
69318;BME280;56457;52.190;4.440;2023-05-25T02:45:28;102852.78;;;10.85;100.00
69318;BME280;56457;52.190;4.440;2023-05-25T02:46:28;102850.19;;;10.87;100.00
69318;BME280;56457;52.190;4.440;2023-05-25T02:47:28;102852.00;;;10.89;100.00
69318;BME280;56457;52.190;4.440;2023-05-25T02:48:29;102852.03;;;10.91;100.00
69318;BME280;56457;52.190;4.440;2023-05-25T02:49:29;102857.22;;;10.88;100.00
69318;BME280;56457;52.190;4.440;2023-05-25T02:50:30;102865.00;;;10.83;100.00
69318;BME280;56457;52.190;4.440;2023-05-25T02:51:30;102862.25;;;10.78;100.00
69318;BME280;56457;52.190;4.440;2023-05-25T02:52:31;102851.44;;;10.65;100.00
69318;BME280;56457;52.190;4.440;2023-05-25T02:53:31;102860.00;;;10.58;100.00
69318;BME280;56457;52.190;4.440;2023-05-25T02:54:32;102859.13;;;10.57;100.00
69318;BME280;56457;52.190;4.440;2023-05-25T02:55:32;102860.81;;;10.55;100.00
69318;BME280;56457;52.190;4.440;2023-05-25T02:56:32;102862.53;;;10.53;100.00
69318;BME280;56457;52.190;4.440;2023-05-25T02:57:32;102864.25;;;10.52;100.00
69318;BME280;56457;52.190;4.440;2023-05-25T02:58:33;102870.19;;;10.44;100.00
69318;BME280;56457;52.190;4.440;2023-05-25T02:59:33;102869.28;;;10.43;100.00
69318;BME280;56457;52.190;4.440;2023-05-25T03:00:34;102867.47;;;10.41;100.00
69318;BME280;56457;52.190;4.440;2023-05-25T03:01:35;102865.84;;;10.46;100.00
69318;BME280;56457;52.190;4.440;2023-05-25T03:02:35;102858.97;;;10.51;100.00
69318;BME280;56457;52.190;4.440;2023-05-25T03:03:35;102865.22;;;10.56;100.00
69318;BME280;56457;52.190;4.440;2023-05-25T03:04:36;102867.16;;;10.63;100.00
69318;BME280;56457;52.190;4.440;2023-05-25T03:05:37;102863.72;;;10.67;100.00
69318;BME280;56457;52.190;4.440;2023-05-25T03:06:38;102857.66;;;10.68;100.00
69318;BME280;56457;52.190;4.440;2023-05-25T03:07:38;102862.81;;;10.65;100.00
69318;BME280;56457;52.190;4.440;2023-05-25T03:08:39;102861.97;;;10.66;100.00
69318;BME280;56457;52.190;4.440;2023-05-25T03:09:40;102870.72;;;10.67;100.00
69318;BME280;56457;52.190;4.440;2023-05-25T03:10:40;102865.47;;;10.67;100.00
69318;BME280;56457;52.190;4.440;2023-05-25T03:11:40;102868.09;;;10.67;100.00
69318;BME280;56457;52.190;4.440;2023-05-25T03:12:41;102867.19;;;10.65;100.00
69318;BME280;56457;52.190;4.440;2023-05-25T03:13:41;102873.31;;;10.65;100.00
69318;BME280;56457;52.190;4.440;2023-05-25T03:14:41;102861.91;;;10.63;100.00
69318;BME280;56457;52.190;4.440;2023-05-25T03:15:42;102869.81;;;10.65;100.00
69318;BME280;56457;52.190;4.440;2023-05-25T03:16:42;102875.19;;;10.69;100.00
69318;BME280;56457;52.190;4.440;2023-05-25T03:17:42;102871.69;;;10.70;100.00
69318;BME280;56457;52.190;4.440;2023-05-25T03:18:43;102870.72;;;10.67;100.00
69318;BME280;56457;52.190;4.440;2023-05-25T03:19:43;102870.72;;;10.67;100.00
69318;BME280;56457;52.190;4.440;2023-05-25T03:20:43;102865.59;;;10.71;100.00
69318;BME280;56457;52.190;4.440;2023-05-25T03:21:45;102869.97;;;10.71;100.00
69318;BME280;56457;52.190;4.440;2023-05-25T03:22:45;102867.31;;;10.69;100.00
69318;BME280;56457;52.190;4.440;2023-05-25T03:23:45;102867.31;;;10.69;100.00
69318;BME280;56457;52.190;4.440;2023-05-25T03:24:46;102862.00;;;10.68;100.00
69318;BME280;56457;52.190;4.440;2023-05-25T03:25:48;102868.06;;;10.65;100.00
69318;BME280;56457;52.190;4.440;2023-05-25T03:26:49;102874.22;;;10.67;100.00
69318;BME280;56457;52.190;4.440;2023-05-25T03:27:52;102870.69;;;10.65;100.00
69318;BME280;56457;52.190;4.440;2023-05-25T03:28:55;102870.78;;;10.68;100.00
69318;BME280;56457;52.190;4.440;2023-05-25T03:29:55;102881.38;;;10.73;100.00
69318;BME280;56457;52.190;4.440;2023-05-25T03:30:55;102875.41;;;10.80;100.00
69318;BME280;56457;52.190;4.440;2023-05-25T03:31:56;102878.09;;;10.82;100.00
69318;BME280;56457;52.190;4.440;2023-05-25T03:32:56;102879.84;;;10.81;100.00
69318;BME280;56457;52.190;4.440;2023-05-25T03:33:57;102887.59;;;10.76;100.00
69318;BME280;56457;52.190;4.440;2023-05-25T03:34:57;102876.84;;;10.67;100.00
69318;BME280;56457;52.190;4.440;2023-05-25T03:35:57;102880.31;;;10.65;100.00
69318;BME280;56457;52.190;4.440;2023-05-25T03:36:58;102878.56;;;10.65;100.00
69318;BME280;56457;52.190;4.440;2023-05-25T03:37:58;102882.06;;;10.64;100.00
69318;BME280;56457;52.190;4.440;2023-05-25T03:38:58;102884.69;;;10.64;100.00
69318;BME280;56457;52.190;4.440;2023-05-25T03:39:59;102881.22;;;10.67;100.00
69318;BME280;56457;52.190;4.440;2023-05-25T03:40:59;102885.69;;;10.69;100.00
69318;BME280;56457;52.190;4.440;2023-05-25T03:41:59;102884.00;;;10.73;100.00
69318;BME280;56457;52.190;4.440;2023-05-25T03:43:00;102881.34;;;10.71;100.00
69318;BME280;56457;52.190;4.440;2023-05-25T03:44:00;102878.72;;;10.71;100.00
69318;BME280;56457;52.190;4.440;2023-05-25T03:45:01;102876.94;;;10.70;100.00
69318;BME280;56457;52.190;4.440;2023-05-25T03:46:01;102878.66;;;10.68;100.00
69318;BME280;56457;52.190;4.440;2023-05-25T03:47:01;102875.19;;;10.69;100.00
69318;BME280;56457;52.190;4.440;2023-05-25T03:48:02;102882.22;;;10.72;100.00
69318;BME280;56457;52.190;4.440;2023-05-25T03:49:02;102881.47;;;10.76;100.00
69318;BME280;56457;52.190;4.440;2023-05-25T03:50:03;102882.34;;;10.76;100.00
69318;BME280;56457;52.190;4.440;2023-05-25T03:51:04;102888.38;;;10.74;100.00
69318;BME280;56457;52.190;4.440;2023-05-25T03:52:05;102884.94;;;10.75;100.00
69318;BME280;56457;52.190;4.440;2023-05-25T03:53:05;102889.25;;;10.73;100.00
69318;BME280;56457;52.190;4.440;2023-05-25T03:54:05;102884.06;;;10.74;100.00
69318;BME280;56457;52.190;4.440;2023-05-25T03:55:06;102885.81;;;10.75;100.00
69318;BME280;56457;52.190;4.440;2023-05-25T03:56:06;102887.44;;;10.70;100.00
69318;BME280;56457;52.190;4.440;2023-05-25T03:57:07;102890.09;;;10.72;100.00
69318;BME280;56457;52.190;4.440;2023-05-25T03:58:07;102891.84;;;10.71;100.00
69318;BME280;56457;52.190;4.440;2023-05-25T03:59:09;102894.56;;;10.74;100.00
69318;BME280;56457;52.190;4.440;2023-05-25T04:00:10;102893.69;;;10.75;100.00
69318;BME280;56457;52.190;4.440;2023-05-25T04:01:10;102888.44;;;10.75;100.00
69318;BME280;56457;52.190;4.440;2023-05-25T04:02:13;102886.72;;;10.76;100.00
69318;BME280;56457;52.190;4.440;2023-05-25T04:03:13;102892.84;;;10.76;100.00
69318;BME280;56457;52.190;4.440;2023-05-25T04:04:14;102889.34;;;10.76;100.00
69318;BME280;56457;52.190;4.440;2023-05-25T04:05:14;102892.75;;;10.73;100.00
69318;BME280;56457;52.190;4.440;2023-05-25T04:06:15;102890.06;;;10.70;100.00
69318;BME280;56457;52.190;4.440;2023-05-25T04:07:18;102890.97;;;10.71;100.00
69318;BME280;56457;52.190;4.440;2023-05-25T04:08:19;102890.03;;;10.69;100.00
69318;BME280;56457;52.190;4.440;2023-05-25T04:09:21;102890.84;;;10.66;100.00
69318;BME280;56457;52.190;4.440;2023-05-25T04:10:21;102896.22;;;10.71;100.00
69318;BME280;56457;52.190;4.440;2023-05-25T04:11:43;102890.94;;;10.69;100.00
69318;BME280;56457;52.190;4.440;2023-05-25T04:13:03;102892.69;;;10.70;100.00
69318;BME280;56457;52.190;4.440;2023-05-25T04:14:25;102892.72;;;10.72;100.00
69318;BME280;56457;52.190;4.440;2023-05-25T04:15:45;102895.28;;;10.69;100.00
69318;BME280;56457;52.190;4.440;2023-05-25T04:17:06;102897.09;;;10.71;100.00
69318;BME280;56457;52.190;4.440;2023-05-25T04:18:26;102899.72;;;10.71;100.00
69318;BME280;56457;52.190;4.440;2023-05-25T04:19:46;102903.31;;;10.75;100.00
69318;BME280;56457;52.190;4.440;2023-05-25T04:21:06;102898.06;;;10.75;100.00
69318;BME280;56457;52.190;4.440;2023-05-25T04:22:26;102898.09;;;10.76;100.00
69318;BME280;56457;52.190;4.440;2023-05-25T04:23:47;102900.72;;;10.76;100.00
69318;BME280;56457;52.190;4.440;2023-05-25T04:25:07;102896.34;;;10.77;100.00
69318;BME280;56457;52.190;4.440;2023-05-25T04:26:27;102903.47;;;10.81;100.00
69318;BME280;56457;52.190;4.440;2023-05-25T04:27:48;102898.16;;;10.79;100.00
69318;BME280;56457;52.190;4.440;2023-05-25T04:29:08;102907.03;;;10.85;100.00
69318;BME280;56457;52.190;4.440;2023-05-25T04:30:28;102896.53;;;10.85;100.00
69318;BME280;56457;52.190;4.440;2023-05-25T04:31:50;102905.31;;;10.87;100.00
69318;BME280;56457;52.190;4.440;2023-05-25T04:33:10;102907.19;;;10.91;100.00
69318;BME280;56457;52.190;4.440;2023-05-25T04:34:30;102908.09;;;10.93;100.00
69318;BME280;56457;52.190;4.440;2023-05-25T04:35:53;102913.34;;;10.93;100.00
69318;BME280;56457;52.190;4.440;2023-05-25T04:37:13;102910.72;;;10.93;100.00
69318;BME280;56457;52.190;4.440;2023-05-25T04:38:34;102912.53;;;10.94;100.00
69318;BME280;56457;52.190;4.440;2023-05-25T04:39:54;102905.47;;;10.93;100.00
69318;BME280;56457;52.190;4.440;2023-05-25T04:41:16;102905.56;;;10.96;100.00
69318;BME280;56457;52.190;4.440;2023-05-25T04:42:37;102912.59;;;10.97;100.00
69318;BME280;56457;52.190;4.440;2023-05-25T04:43:58;102916.13;;;10.99;100.00
69318;BME280;56457;52.190;4.440;2023-05-25T04:45:19;102914.44;;;11.01;100.00
69318;BME280;56457;52.190;4.440;2023-05-25T04:46:40;102917.13;;;11.04;100.00
69318;BME280;56457;52.190;4.440;2023-05-25T04:48:00;102921.50;;;11.05;100.00
69318;BME280;56457;52.190;4.440;2023-05-25T04:49:21;102920.78;;;11.11;100.00
69318;BME280;56457;52.190;4.440;2023-05-25T04:50:42;102924.25;;;11.10;100.00
69318;BME280;56457;52.190;4.440;2023-05-25T04:52:02;102924.28;;;11.11;100.00
69318;BME280;56457;52.190;4.440;2023-05-25T04:53:22;102926.00;;;11.09;100.00
69318;BME280;56457;52.190;4.440;2023-05-25T04:54:42;102926.91;;;11.11;100.00
69318;BME280;56457;52.190;4.440;2023-05-25T04:56:03;102927.88;;;11.15;100.00
69318;BME280;56457;52.190;4.440;2023-05-25T04:57:23;102930.56;;;11.18;100.00
69318;BME280;56457;52.190;4.440;2023-05-25T04:58:43;102930.53;;;11.16;100.00
69318;BME280;56457;52.190;4.440;2023-05-25T05:00:04;102927.91;;;11.16;100.00
69318;BME280;56457;52.190;4.440;2023-05-25T05:01:25;102935.75;;;11.13;100.00
69318;BME280;56457;52.190;4.440;2023-05-25T05:02:45;102937.56;;;11.17;100.00
69318;BME280;56457;52.190;4.440;2023-05-25T05:04:05;102933.34;;;11.24;100.00
69318;BME280;56457;52.190;4.440;2023-05-25T05:05:26;102936.03;;;11.25;100.00
69318;BME280;56457;52.190;4.440;2023-05-25T05:06:47;102929.06;;;11.27;100.00
69318;BME280;56457;52.190;4.440;2023-05-25T05:08:07;102939.66;;;11.30;100.00
69318;BME280;56457;52.190;4.440;2023-05-25T05:09:27;102931.78;;;11.32;100.00
69318;BME280;56457;52.190;4.440;2023-05-25T05:10:47;102933.56;;;11.33;100.00
69318;BME280;56457;52.190;4.440;2023-05-25T05:12:08;102935.47;;;11.40;100.00
69318;BME280;56457;52.190;4.440;2023-05-25T05:13:28;102938.97;;;11.41;100.00
69318;BME280;56457;52.190;4.440;2023-05-25T05:14:48;102940.75;;;11.42;100.00
69318;BME280;56457;52.190;4.440;2023-05-25T05:16:08;102934.72;;;11.46;100.00
69318;BME280;56457;52.190;4.440;2023-05-25T05:17:29;102939.09;;;11.45;100.00
69318;BME280;56457;52.190;4.440;2023-05-25T05:18:49;102933.97;;;11.51;100.00
69318;BME280;56457;52.190;4.440;2023-05-25T05:20:10;102941.91;;;11.54;100.00
69318;BME280;56457;52.190;4.440;2023-05-25T05:21:30;102941.06;;;11.55;100.00
69318;BME280;56457;52.190;4.440;2023-05-25T05:22:50;102941.97;;;11.57;100.00
69318;BME280;56457;52.190;4.440;2023-05-25T05:24:12;102940.38;;;11.64;100.00
69318;BME280;56457;52.190;4.440;2023-05-25T05:25:32;102935.16;;;11.67;100.00
69318;BME280;56457;52.190;4.440;2023-05-25T05:26:52;102936.97;;;11.70;100.00
69318;BME280;56457;52.190;4.440;2023-05-25T05:28:12;102948.38;;;11.70;100.00
69318;BME280;56457;52.190;4.440;2023-05-25T05:29:33;102942.47;;;11.80;100.00
69318;BME280;56457;52.190;4.440;2023-05-25T05:30:53;102940.78;;;11.82;100.00
69318;BME280;56457;52.190;4.440;2023-05-25T05:32:13;102937.31;;;11.85;100.00
69318;BME280;56457;52.190;4.440;2023-05-25T05:33:33;102947.16;;;11.94;100.00
69318;BME280;56457;52.190;4.440;2023-05-25T05:34:54;102936.69;;;11.97;100.00
69318;BME280;56457;52.190;4.440;2023-05-25T05:36:14;102938.38;;;11.93;100.00
69318;BME280;56457;52.190;4.440;2023-05-25T05:37:34;102945.34;;;11.91;100.00
69318;BME280;56457;52.190;4.440;2023-05-25T05:38:55;102951.56;;;11.95;100.00
69318;BME280;56457;52.190;4.440;2023-05-25T05:40:15;102952.44;;;11.95;100.00
69318;BME280;56457;52.190;4.440;2023-05-25T05:41:35;102953.53;;;12.05;100.00
69318;BME280;56457;52.190;4.440;2023-05-25T05:42:55;102945.69;;;12.09;100.00
69318;BME280;56457;52.190;4.440;2023-05-25T05:44:16;102958.09;;;12.17;100.00
69318;BME280;56457;52.190;4.440;2023-05-25T05:45:36;102957.19;;;12.15;100.00
69318;BME280;56457;52.190;4.440;2023-05-25T05:46:56;102952.00;;;12.18;100.00